sensor_id;sensor_type;location;lat;lon;timestamp;temperature;humidity
7194;DHT22;3638;48.820;9.244;2022-11-03T00:01:32;7.50;99.90
7194;DHT22;3638;48.820;9.244;2022-11-03T00:04:00;7.50;99.90
7194;DHT22;3638;48.820;9.244;2022-11-03T00:06:27;7.40;99.90
7194;DHT22;3638;48.820;9.244;2022-11-03T00:08:56;7.40;99.90
7194;DHT22;3638;48.820;9.244;2022-11-03T00:11:24;7.50;99.90
7194;DHT22;3638;48.820;9.244;2022-11-03T00:13:51;7.50;99.90
7194;DHT22;3638;48.820;9.244;2022-11-03T00:16:18;7.50;99.90
7194;DHT22;3638;48.820;9.244;2022-11-03T00:18:45;7.50;99.90
7194;DHT22;3638;48.820;9.244;2022-11-03T00:21:13;7.60;99.90
7194;DHT22;3638;48.820;9.244;2022-11-03T00:23:41;7.60;99.90
7194;DHT22;3638;48.820;9.244;2022-11-03T00:26:12;7.70;99.90
7194;DHT22;3638;48.820;9.244;2022-11-03T00:28:41;7.60;99.90
7194;DHT22;3638;48.820;9.244;2022-11-03T00:31:10;7.70;99.90
7194;DHT22;3638;48.820;9.244;2022-11-03T00:33:38;7.70;99.90
7194;DHT22;3638;48.820;9.244;2022-11-03T00:36:08;7.70;99.90
7194;DHT22;3638;48.820;9.244;2022-11-03T00:38:37;7.70;99.90
7194;DHT22;3638;48.820;9.244;2022-11-03T00:41:05;7.70;99.90
7194;DHT22;3638;48.820;9.244;2022-11-03T00:43:33;7.70;99.90
7194;DHT22;3638;48.820;9.244;2022-11-03T00:46:01;7.70;99.90
7194;DHT22;3638;48.820;9.244;2022-11-03T00:48:29;7.70;99.90
7194;DHT22;3638;48.820;9.244;2022-11-03T00:51:04;7.70;99.90
7194;DHT22;3638;48.820;9.244;2022-11-03T00:53:35;7.70;99.90
7194;DHT22;3638;48.820;9.244;2022-11-03T00:56:03;7.70;99.90
7194;DHT22;3638;48.820;9.244;2022-11-03T00:58:32;7.60;99.90
7194;DHT22;3638;48.820;9.244;2022-11-03T01:01:00;7.70;99.90
7194;DHT22;3638;48.820;9.244;2022-11-03T01:03:30;7.70;99.90
7194;DHT22;3638;48.820;9.244;2022-11-03T01:05:57;7.70;99.90
7194;DHT22;3638;48.820;9.244;2022-11-03T01:08:53;7.60;99.90
7194;DHT22;3638;48.820;9.244;2022-11-03T01:11:22;7.60;99.90
7194;DHT22;3638;48.820;9.244;2022-11-03T01:14:09;7.50;99.90
7194;DHT22;3638;48.820;9.244;2022-11-03T01:16:39;7.50;99.90
7194;DHT22;3638;48.820;9.244;2022-11-03T01:19:06;7.50;99.90
7194;DHT22;3638;48.820;9.244;2022-11-03T01:21:34;7.40;99.90
7194;DHT22;3638;48.820;9.244;2022-11-03T01:24:01;7.30;99.90
7194;DHT22;3638;48.820;9.244;2022-11-03T01:26:30;7.30;99.90
7194;DHT22;3638;48.820;9.244;2022-11-03T01:28:58;7.30;99.90
7194;DHT22;3638;48.820;9.244;2022-11-03T01:31:27;7.30;99.90
7194;DHT22;3638;48.820;9.244;2022-11-03T01:33:55;7.30;99.90
7194;DHT22;3638;48.820;9.244;2022-11-03T01:36:23;7.30;99.90
7194;DHT22;3638;48.820;9.244;2022-11-03T01:38:50;7.30;99.90
7194;DHT22;3638;48.820;9.244;2022-11-03T01:41:19;7.30;99.90
7194;DHT22;3638;48.820;9.244;2022-11-03T01:43:49;7.30;99.90
7194;DHT22;3638;48.820;9.244;2022-11-03T01:46:19;7.40;99.90
7194;DHT22;3638;48.820;9.244;2022-11-03T01:48:59;7.30;99.90
7194;DHT22;3638;48.820;9.244;2022-11-03T01:51:28;7.30;99.90
7194;DHT22;3638;48.820;9.244;2022-11-03T01:53:57;7.30;99.90
7194;DHT22;3638;48.820;9.244;2022-11-03T01:56:26;7.30;99.90
7194;DHT22;3638;48.820;9.244;2022-11-03T01:58:55;7.30;99.90
7194;DHT22;3638;48.820;9.244;2022-11-03T02:01:22;7.10;99.90
7194;DHT22;3638;48.820;9.244;2022-11-03T02:03:54;7.10;99.90
7194;DHT22;3638;48.820;9.244;2022-11-03T02:06:27;7.00;99.90
7194;DHT22;3638;48.820;9.244;2022-11-03T02:08:59;6.90;99.90
7194;DHT22;3638;48.820;9.244;2022-11-03T02:11:30;6.70;99.90
7194;DHT22;3638;48.820;9.244;2022-11-03T02:14:16;6.70;99.90
7194;DHT22;3638;48.820;9.244;2022-11-03T02:16:46;6.60;99.90
7194;DHT22;3638;48.820;9.244;2022-11-03T02:19:20;6.60;99.90
7194;DHT22;3638;48.820;9.244;2022-11-03T02:21:58;6.60;99.90
7194;DHT22;3638;48.820;9.244;2022-11-03T02:24:35;6.60;99.90
7194;DHT22;3638;48.820;9.244;2022-11-03T02:27:07;6.70;99.90
7194;DHT22;3638;48.820;9.244;2022-11-03T02:29:34;6.80;99.90
7194;DHT22;3638;48.820;9.244;2022-11-03T02:32:04;6.70;99.90
7194;DHT22;3638;48.820;9.244;2022-11-03T02:34:39;6.80;99.90
7194;DHT22;3638;48.820;9.244;2022-11-03T02:37:12;6.80;99.90
7194;DHT22;3638;48.820;9.244;2022-11-03T02:39:44;6.80;99.90
7194;DHT22;3638;48.820;9.244;2022-11-03T02:42:14;6.80;99.90
7194;DHT22;3638;48.820;9.244;2022-11-03T02:44:43;6.80;99.90
7194;DHT22;3638;48.820;9.244;2022-11-03T02:47:12;6.80;99.90
7194;DHT22;3638;48.820;9.244;2022-11-03T02:49:45;6.90;99.90
7194;DHT22;3638;48.820;9.244;2022-11-03T02:52:33;6.90;99.90
7194;DHT22;3638;48.820;9.244;2022-11-03T02:55:30;6.90;99.90
7194;DHT22;3638;48.820;9.244;2022-11-03T02:58:06;7.00;99.90
7194;DHT22;3638;48.820;9.244;2022-11-03T03:00:42;7.00;99.90
7194;DHT22;3638;48.820;9.244;2022-11-03T03:03:17;7.00;99.90
7194;DHT22;3638;48.820;9.244;2022-11-03T03:05:47;7.00;99.90
7194;DHT22;3638;48.820;9.244;2022-11-03T03:08:16;7.00;99.90
7194;DHT22;3638;48.820;9.244;2022-11-03T03:10:45;6.90;99.90
7194;DHT22;3638;48.820;9.244;2022-11-03T03:13:18;6.90;99.90
7194;DHT22;3638;48.820;9.244;2022-11-03T03:15:54;7.00;99.90
7194;DHT22;3638;48.820;9.244;2022-11-03T03:18:37;7.00;99.90
7194;DHT22;3638;48.820;9.244;2022-11-03T03:21:12;6.90;99.90
7194;DHT22;3638;48.820;9.244;2022-11-03T03:23:44;7.00;99.90
7194;DHT22;3638;48.820;9.244;2022-11-03T03:26:19;7.00;99.90
7194;DHT22;3638;48.820;9.244;2022-11-03T03:28:54;7.00;99.90
7194;DHT22;3638;48.820;9.244;2022-11-03T03:31:25;6.90;99.90
7194;DHT22;3638;48.820;9.244;2022-11-03T03:33:53;6.90;99.90
7194;DHT22;3638;48.820;9.244;2022-11-03T03:36:23;6.80;99.90
7194;DHT22;3638;48.820;9.244;2022-11-03T03:38:55;6.80;99.90
7194;DHT22;3638;48.820;9.244;2022-11-03T03:41:28;6.70;99.90
7194;DHT22;3638;48.820;9.244;2022-11-03T03:44:01;6.70;99.90
7194;DHT22;3638;48.820;9.244;2022-11-03T03:46:33;6.50;99.90
7194;DHT22;3638;48.820;9.244;2022-11-03T03:49:04;6.50;99.90
7194;DHT22;3638;48.820;9.244;2022-11-03T03:51:32;6.40;99.90
7194;DHT22;3638;48.820;9.244;2022-11-03T03:54:00;6.50;99.90
7194;DHT22;3638;48.820;9.244;2022-11-03T03:56:30;6.50;99.90
7194;DHT22;3638;48.820;9.244;2022-11-03T03:59:00;6.40;99.90
7194;DHT22;3638;48.820;9.244;2022-11-03T04:01:27;6.30;99.90
7194;DHT22;3638;48.820;9.244;2022-11-03T04:03:54;6.30;99.90
7194;DHT22;3638;48.820;9.244;2022-11-03T04:06:22;6.20;99.90
7194;DHT22;3638;48.820;9.244;2022-11-03T04:08:49;6.20;99.90
7194;DHT22;3638;48.820;9.244;2022-11-03T04:11:16;6.10;99.90
7194;DHT22;3638;48.820;9.244;2022-11-03T04:14:01;6.20;99.90
7194;DHT22;3638;48.820;9.244;2022-11-03T04:16:46;6.10;99.90
7194;DHT22;3638;48.820;9.244;2022-11-03T04:19:31;6.20;99.90
7194;DHT22;3638;48.820;9.244;2022-11-03T04:22:16;6.10;99.90
7194;DHT22;3638;48.820;9.244;2022-11-03T04:24:43;6.10;99.90
7194;DHT22;3638;48.820;9.244;2022-11-03T04:27:27;6.10;99.90
7194;DHT22;3638;48.820;9.244;2022-11-03T04:30:01;6.10;99.90
7194;DHT22;3638;48.820;9.244;2022-11-03T04:32:35;6.10;99.90
7194;DHT22;3638;48.820;9.244;2022-11-03T04:35:12;6.10;99.90
7194;DHT22;3638;48.820;9.244;2022-11-03T04:37:40;6.10;99.90
7194;DHT22;3638;48.820;9.244;2022-11-03T04:40:12;6.10;99.90
7194;DHT22;3638;48.820;9.244;2022-11-03T04:42:40;6.10;99.90
7194;DHT22;3638;48.820;9.244;2022-11-03T04:45:18;6.10;99.90
7194;DHT22;3638;48.820;9.244;2022-11-03T04:47:48;6.10;99.90
7194;DHT22;3638;48.820;9.244;2022-11-03T04:50:18;6.10;99.90
7194;DHT22;3638;48.820;9.244;2022-11-03T04:52:45;6.10;99.90
7194;DHT22;3638;48.820;9.244;2022-11-03T04:55:14;6.10;99.90
7194;DHT22;3638;48.820;9.244;2022-11-03T04:57:43;6.00;99.90
7194;DHT22;3638;48.820;9.244;2022-11-03T05:00:16;6.00;99.90
7194;DHT22;3638;48.820;9.244;2022-11-03T05:02:46;6.00;99.90
7194;DHT22;3638;48.820;9.244;2022-11-03T05:05:15;6.10;99.90
7194;DHT22;3638;48.820;9.244;2022-11-03T05:07:44;6.00;99.90
7194;DHT22;3638;48.820;9.244;2022-11-03T05:10:16;6.00;99.90
7194;DHT22;3638;48.820;9.244;2022-11-03T05:12:45;5.90;99.90
7194;DHT22;3638;48.820;9.244;2022-11-03T05:15:27;5.90;99.90
7194;DHT22;3638;48.820;9.244;2022-11-03T05:17:56;5.90;99.90
7194;DHT22;3638;48.820;9.244;2022-11-03T05:20:30;5.90;99.90
7194;DHT22;3638;48.820;9.244;2022-11-03T05:22:59;6.00;99.90
7194;DHT22;3638;48.820;9.244;2022-11-03T05:25:38;6.00;99.90
7194;DHT22;3638;48.820;9.244;2022-11-03T05:28:19;6.00;99.90
7194;DHT22;3638;48.820;9.244;2022-11-03T05:30:49;6.10;99.90
7194;DHT22;3638;48.820;9.244;2022-11-03T05:33:26;6.10;99.90
7194;DHT22;3638;48.820;9.244;2022-11-03T05:35:55;6.10;99.90
7194;DHT22;3638;48.820;9.244;2022-11-03T05:38:26;6.10;99.90
7194;DHT22;3638;48.820;9.244;2022-11-03T05:40:55;6.20;99.90
7194;DHT22;3638;48.820;9.244;2022-11-03T05:43:22;6.20;99.90
7194;DHT22;3638;48.820;9.244;2022-11-03T05:45:52;6.20;99.90
7194;DHT22;3638;48.820;9.244;2022-11-03T05:48:28;6.10;99.90
7194;DHT22;3638;48.820;9.244;2022-11-03T05:50:57;6.20;99.90
7194;DHT22;3638;48.820;9.244;2022-11-03T05:53:28;6.20;99.90
7194;DHT22;3638;48.820;9.244;2022-11-03T05:55:59;6.20;99.90
7194;DHT22;3638;48.820;9.244;2022-11-03T05:58:30;6.10;99.90
7194;DHT22;3638;48.820;9.244;2022-11-03T06:01:03;6.20;99.90
7194;DHT22;3638;48.820;9.244;2022-11-03T06:03:37;6.20;99.90
7194;DHT22;3638;48.820;9.244;2022-11-03T06:06:12;6.20;99.90
7194;DHT22;3638;48.820;9.244;2022-11-03T06:08:42;6.20;99.90
7194;DHT22;3638;48.820;9.244;2022-11-03T06:11:15;6.30;99.90
7194;DHT22;3638;48.820;9.244;2022-11-03T06:13:47;6.30;99.90
7194;DHT22;3638;48.820;9.244;2022-11-03T06:16:35;6.30;99.90
7194;DHT22;3638;48.820;9.244;2022-11-03T06:19:16;6.30;99.90
7194;DHT22;3638;48.820;9.244;2022-11-03T06:21:47;6.30;99.90
7194;DHT22;3638;48.820;9.244;2022-11-03T06:24:16;6.40;99.90
7194;DHT22;3638;48.820;9.244;2022-11-03T06:26:45;6.40;99.90
7194;DHT22;3638;48.820;9.244;2022-11-03T06:29:16;6.50;99.90
7194;DHT22;3638;48.820;9.244;2022-11-03T06:31:47;6.50;99.90
7194;DHT22;3638;48.820;9.244;2022-11-03T06:34:31;6.50;99.90
7194;DHT22;3638;48.820;9.244;2022-11-03T06:37:09;6.50;99.90
7194;DHT22;3638;48.820;9.244;2022-11-03T06:39:47;6.50;99.90
7194;DHT22;3638;48.820;9.244;2022-11-03T06:42:18;6.50;99.90
7194;DHT22;3638;48.820;9.244;2022-11-03T06:44:48;6.50;99.90
7194;DHT22;3638;48.820;9.244;2022-11-03T06:47:22;6.50;99.90
7194;DHT22;3638;48.820;9.244;2022-11-03T06:49:50;6.60;99.90
7194;DHT22;3638;48.820;9.244;2022-11-03T06:52:27;6.80;99.90
7194;DHT22;3638;48.820;9.244;2022-11-03T06:55:01;7.10;99.90
7194;DHT22;3638;48.820;9.244;2022-11-03T06:57:42;7.40;99.90
7194;DHT22;3638;48.820;9.244;2022-11-03T07:00:18;7.70;99.90
7194;DHT22;3638;48.820;9.244;2022-11-03T07:02:56;7.90;99.90
7194;DHT22;3638;48.820;9.244;2022-11-03T07:05:28;8.00;99.90
7194;DHT22;3638;48.820;9.244;2022-11-03T07:07:58;8.00;99.90
7194;DHT22;3638;48.820;9.244;2022-11-03T07:10:27;8.10;99.90
7194;DHT22;3638;48.820;9.244;2022-11-03T07:12:57;8.30;99.90
7194;DHT22;3638;48.820;9.244;2022-11-03T07:15:27;8.40;99.90
7194;DHT22;3638;48.820;9.244;2022-11-03T07:17:58;8.50;99.90
7194;DHT22;3638;48.820;9.244;2022-11-03T07:20:26;8.70;99.90
7194;DHT22;3638;48.820;9.244;2022-11-03T07:22:53;8.80;99.90
7194;DHT22;3638;48.820;9.244;2022-11-03T07:25:21;8.90;99.90
7194;DHT22;3638;48.820;9.244;2022-11-03T07:27:50;9.00;99.90
7194;DHT22;3638;48.820;9.244;2022-11-03T07:30:20;9.20;99.90
7194;DHT22;3638;48.820;9.244;2022-11-03T07:32:49;9.70;99.90
7194;DHT22;3638;48.820;9.244;2022-11-03T07:35:28;10.40;99.90
7194;DHT22;3638;48.820;9.244;2022-11-03T07:38:01;11.00;99.90
7194;DHT22;3638;48.820;9.244;2022-11-03T07:40:31;10.80;99.90
7194;DHT22;3638;48.820;9.244;2022-11-03T07:43:10;10.80;99.90
7194;DHT22;3638;48.820;9.244;2022-11-03T07:45:42;10.70;99.90
7194;DHT22;3638;48.820;9.244;2022-11-03T07:48:21;10.60;99.90
7194;DHT22;3638;48.820;9.244;2022-11-03T07:50:53;11.40;99.90
7194;DHT22;3638;48.820;9.244;2022-11-03T07:53:24;10.70;99.90
7194;DHT22;3638;48.820;9.244;2022-11-03T07:55:57;10.90;99.90
7194;DHT22;3638;48.820;9.244;2022-11-03T07:58:35;10.60;99.90
7194;DHT22;3638;48.820;9.244;2022-11-03T08:01:18;10.40;99.90
7194;DHT22;3638;48.820;9.244;2022-11-03T08:03:49;10.20;99.90
7194;DHT22;3638;48.820;9.244;2022-11-03T08:06:18;10.10;99.90
7194;DHT22;3638;48.820;9.244;2022-11-03T08:08:45;10.10;99.90
7194;DHT22;3638;48.820;9.244;2022-11-03T08:11:11;10.10;99.90
7194;DHT22;3638;48.820;9.244;2022-11-03T08:13:38;10.10;99.90
7194;DHT22;3638;48.820;9.244;2022-11-03T08:16:05;10.20;99.90
7194;DHT22;3638;48.820;9.244;2022-11-03T08:18:33;10.20;99.90
7194;DHT22;3638;48.820;9.244;2022-11-03T08:21:01;10.30;99.90
7194;DHT22;3638;48.820;9.244;2022-11-03T08:23:29;10.20;99.90
7194;DHT22;3638;48.820;9.244;2022-11-03T08:25:56;10.30;99.90
7194;DHT22;3638;48.820;9.244;2022-11-03T08:28:23;10.50;99.90
7194;DHT22;3638;48.820;9.244;2022-11-03T08:30:50;10.60;99.90
7194;DHT22;3638;48.820;9.244;2022-11-03T08:33:17;10.70;99.90
7194;DHT22;3638;48.820;9.244;2022-11-03T08:35:44;10.80;99.90
7194;DHT22;3638;48.820;9.244;2022-11-03T08:38:11;10.80;99.90
7194;DHT22;3638;48.820;9.244;2022-11-03T08:40:40;10.80;99.90
7194;DHT22;3638;48.820;9.244;2022-11-03T08:43:06;10.80;99.90
7194;DHT22;3638;48.820;9.244;2022-11-03T08:45:33;10.80;99.90
7194;DHT22;3638;48.820;9.244;2022-11-03T08:48:01;10.90;99.90
7194;DHT22;3638;48.820;9.244;2022-11-03T08:52:55;11.10;99.90
7194;DHT22;3638;48.820;9.244;2022-11-03T08:55:22;11.20;99.90
7194;DHT22;3638;48.820;9.244;2022-11-03T08:57:51;11.30;99.90
7194;DHT22;3638;48.820;9.244;2022-11-03T09:00:18;11.40;99.90
7194;DHT22;3638;48.820;9.244;2022-11-03T09:02:45;11.40;99.90
7194;DHT22;3638;48.820;9.244;2022-11-03T09:05:12;11.40;99.90
7194;DHT22;3638;48.820;9.244;2022-11-03T09:07:39;11.40;99.90
7194;DHT22;3638;48.820;9.244;2022-11-03T09:10:07;11.40;99.90
7194;DHT22;3638;48.820;9.244;2022-11-03T09:12:36;11.30;99.90
7194;DHT22;3638;48.820;9.244;2022-11-03T09:15:05;11.40;99.90
7194;DHT22;3638;48.820;9.244;2022-11-03T09:17:33;11.40;99.90
7194;DHT22;3638;48.820;9.244;2022-11-03T09:20:00;11.30;99.90
7194;DHT22;3638;48.820;9.244;2022-11-03T09:22:27;11.50;99.90
7194;DHT22;3638;48.820;9.244;2022-11-03T09:24:54;11.60;99.90
7194;DHT22;3638;48.820;9.244;2022-11-03T09:27:21;11.50;99.90
7194;DHT22;3638;48.820;9.244;2022-11-03T09:29:48;11.60;99.90
7194;DHT22;3638;48.820;9.244;2022-11-03T09:32:16;11.60;99.90
7194;DHT22;3638;48.820;9.244;2022-11-03T09:34:43;11.50;99.90
7194;DHT22;3638;48.820;9.244;2022-11-03T09:37:10;11.60;99.90
7194;DHT22;3638;48.820;9.244;2022-11-03T09:39:37;11.70;99.90
7194;DHT22;3638;48.820;9.244;2022-11-03T09:42:04;11.80;99.90
7194;DHT22;3638;48.820;9.244;2022-11-03T09:44:32;12.00;99.90
7194;DHT22;3638;48.820;9.244;2022-11-03T09:47:00;12.00;99.90
7194;DHT22;3638;48.820;9.244;2022-11-03T09:49:30;12.20;99.90
7194;DHT22;3638;48.820;9.244;2022-11-03T09:51:58;12.20;99.90
7194;DHT22;3638;48.820;9.244;2022-11-03T09:54:26;12.50;99.90
7194;DHT22;3638;48.820;9.244;2022-11-03T09:56:55;12.50;99.90
7194;DHT22;3638;48.820;9.244;2022-11-03T09:59:24;12.60;99.90
7194;DHT22;3638;48.820;9.244;2022-11-03T10:01:52;12.70;99.90
7194;DHT22;3638;48.820;9.244;2022-11-03T10:04:22;12.90;99.90
7194;DHT22;3638;48.820;9.244;2022-11-03T10:06:53;12.80;99.90
7194;DHT22;3638;48.820;9.244;2022-11-03T10:09:20;12.80;99.90
7194;DHT22;3638;48.820;9.244;2022-11-03T10:11:49;12.70;99.90
7194;DHT22;3638;48.820;9.244;2022-11-03T10:14:18;12.70;99.90
7194;DHT22;3638;48.820;9.244;2022-11-03T10:16:51;12.70;99.90
7194;DHT22;3638;48.820;9.244;2022-11-03T10:19:18;12.70;99.90
7194;DHT22;3638;48.820;9.244;2022-11-03T10:21:45;12.80;99.90
7194;DHT22;3638;48.820;9.244;2022-11-03T10:24:14;13.10;99.90
7194;DHT22;3638;48.820;9.244;2022-11-03T10:26:45;13.00;99.90
7194;DHT22;3638;48.820;9.244;2022-11-03T10:29:17;12.90;99.90
7194;DHT22;3638;48.820;9.244;2022-11-03T10:31:46;12.90;99.90
7194;DHT22;3638;48.820;9.244;2022-11-03T10:34:26;13.00;99.90
7194;DHT22;3638;48.820;9.244;2022-11-03T10:37:09;13.00;99.90
7194;DHT22;3638;48.820;9.244;2022-11-03T10:39:43;13.00;99.90
7194;DHT22;3638;48.820;9.244;2022-11-03T10:42:17;13.10;99.90
7194;DHT22;3638;48.820;9.244;2022-11-03T10:44:46;13.20;99.90
7194;DHT22;3638;48.820;9.244;2022-11-03T10:47:34;13.20;99.90
7194;DHT22;3638;48.820;9.244;2022-11-03T10:50:19;13.40;99.90
7194;DHT22;3638;48.820;9.244;2022-11-03T10:52:47;13.60;99.90
7194;DHT22;3638;48.820;9.244;2022-11-03T10:55:16;13.60;99.90
7194;DHT22;3638;48.820;9.244;2022-11-03T10:57:45;13.50;99.90
7194;DHT22;3638;48.820;9.244;2022-11-03T11:00:13;13.50;99.90
7194;DHT22;3638;48.820;9.244;2022-11-03T11:02:42;13.50;99.90
7194;DHT22;3638;48.820;9.244;2022-11-03T11:05:13;14.00;99.90
7194;DHT22;3638;48.820;9.244;2022-11-03T11:07:44;13.50;99.90
7194;DHT22;3638;48.820;9.244;2022-11-03T11:10:14;13.50;99.90
7194;DHT22;3638;48.820;9.244;2022-11-03T11:13:24;13.50;99.90
7194;DHT22;3638;48.820;9.244;2022-11-03T11:15:54;13.50;99.90
7194;DHT22;3638;48.820;9.244;2022-11-03T11:18:59;13.80;99.90
7194;DHT22;3638;48.820;9.244;2022-11-03T11:21:49;13.60;99.90
7194;DHT22;3638;48.820;9.244;2022-11-03T11:25:00;13.70;99.90
7194;DHT22;3638;48.820;9.244;2022-11-03T11:27:54;13.70;99.90
7194;DHT22;3638;48.820;9.244;2022-11-03T11:33:31;13.40;99.90
7194;DHT22;3638;48.820;9.244;2022-11-03T11:36:04;13.50;99.90
7194;DHT22;3638;48.820;9.244;2022-11-03T11:39:07;13.70;99.90
7194;DHT22;3638;48.820;9.244;2022-11-03T11:42:05;13.90;99.90
7194;DHT22;3638;48.820;9.244;2022-11-03T11:45:07;13.80;99.90
7194;DHT22;3638;48.820;9.244;2022-11-03T11:47:45;13.90;99.90
7194;DHT22;3638;48.820;9.244;2022-11-03T11:50:27;13.80;99.90
7194;DHT22;3638;48.820;9.244;2022-11-03T11:52:58;13.90;99.90
7194;DHT22;3638;48.820;9.244;2022-11-03T11:55:33;13.80;99.90
7194;DHT22;3638;48.820;9.244;2022-11-03T11:58:12;13.90;99.90
7194;DHT22;3638;48.820;9.244;2022-11-03T12:00:52;14.10;99.90
7194;DHT22;3638;48.820;9.244;2022-11-03T12:03:28;14.20;99.90
7194;DHT22;3638;48.820;9.244;2022-11-03T12:05:56;14.10;99.90
7194;DHT22;3638;48.820;9.244;2022-11-03T12:08:26;13.90;99.90
7194;DHT22;3638;48.820;9.244;2022-11-03T12:10:55;13.80;99.90
7194;DHT22;3638;48.820;9.244;2022-11-03T12:13:41;13.70;99.90
7194;DHT22;3638;48.820;9.244;2022-11-03T12:16:28;13.60;99.90
7194;DHT22;3638;48.820;9.244;2022-11-03T12:18:57;13.50;99.90
7194;DHT22;3638;48.820;9.244;2022-11-03T12:22:03;13.50;99.90
7194;DHT22;3638;48.820;9.244;2022-11-03T12:24:47;13.50;99.90
7194;DHT22;3638;48.820;9.244;2022-11-03T12:27:18;13.50;99.90
7194;DHT22;3638;48.820;9.244;2022-11-03T12:30:10;13.50;99.90
7194;DHT22;3638;48.820;9.244;2022-11-03T12:32:40;13.50;99.90
7194;DHT22;3638;48.820;9.244;2022-11-03T12:35:09;13.30;99.90
7194;DHT22;3638;48.820;9.244;2022-11-03T12:37:38;13.30;99.90
7194;DHT22;3638;48.820;9.244;2022-11-03T12:40:06;13.30;99.90
7194;DHT22;3638;48.820;9.244;2022-11-03T12:42:34;13.10;99.90
7194;DHT22;3638;48.820;9.244;2022-11-03T12:45:01;13.10;99.90
7194;DHT22;3638;48.820;9.244;2022-11-03T12:47:28;12.90;99.90
7194;DHT22;3638;48.820;9.244;2022-11-03T12:49:56;12.90;99.90
7194;DHT22;3638;48.820;9.244;2022-11-03T12:52:23;13.10;99.90
7194;DHT22;3638;48.820;9.244;2022-11-03T12:54:50;13.00;99.90
7194;DHT22;3638;48.820;9.244;2022-11-03T12:57:17;12.90;99.90
7194;DHT22;3638;48.820;9.244;2022-11-03T12:59:44;12.90;99.90
7194;DHT22;3638;48.820;9.244;2022-11-03T13:02:11;12.90;99.90
7194;DHT22;3638;48.820;9.244;2022-11-03T13:04:37;13.00;99.90
7194;DHT22;3638;48.820;9.244;2022-11-03T13:07:06;13.00;99.90
7194;DHT22;3638;48.820;9.244;2022-11-03T13:09:33;13.00;99.90
7194;DHT22;3638;48.820;9.244;2022-11-03T13:12:01;13.00;99.90
7194;DHT22;3638;48.820;9.244;2022-11-03T13:14:45;13.00;99.90
7194;DHT22;3638;48.820;9.244;2022-11-03T13:17:12;13.00;99.90
7194;DHT22;3638;48.820;9.244;2022-11-03T13:19:39;13.10;99.90
7194;DHT22;3638;48.820;9.244;2022-11-03T13:22:07;13.00;99.90
7194;DHT22;3638;48.820;9.244;2022-11-03T13:24:34;13.10;99.90
7194;DHT22;3638;48.820;9.244;2022-11-03T13:29:29;13.10;99.90
7194;DHT22;3638;48.820;9.244;2022-11-03T13:31:56;13.10;99.90
7194;DHT22;3638;48.820;9.244;2022-11-03T13:34:22;12.30;99.90
7194;DHT22;3638;48.820;9.244;2022-11-03T13:36:49;13.30;99.90
7194;DHT22;3638;48.820;9.244;2022-11-03T13:39:18;13.30;99.90
7194;DHT22;3638;48.820;9.244;2022-11-03T13:41:45;13.30;99.90
7194;DHT22;3638;48.820;9.244;2022-11-03T13:44:12;13.30;99.90
7194;DHT22;3638;48.820;9.244;2022-11-03T13:46:39;13.20;99.90
7194;DHT22;3638;48.820;9.244;2022-11-03T13:49:06;13.30;99.90
7194;DHT22;3638;48.820;9.244;2022-11-03T13:51:33;13.30;99.90
7194;DHT22;3638;48.820;9.244;2022-11-03T13:54:00;13.40;99.90
7194;DHT22;3638;48.820;9.244;2022-11-03T13:56:28;13.40;99.90
7194;DHT22;3638;48.820;9.244;2022-11-03T13:58:55;13.50;99.90
7194;DHT22;3638;48.820;9.244;2022-11-03T14:01:22;13.40;99.90
7194;DHT22;3638;48.820;9.244;2022-11-03T14:03:49;13.50;99.90
7194;DHT22;3638;48.820;9.244;2022-11-03T14:06:16;13.50;99.90
7194;DHT22;3638;48.820;9.244;2022-11-03T14:08:42;13.50;99.90
7194;DHT22;3638;48.820;9.244;2022-11-03T14:11:09;13.30;99.90
7194;DHT22;3638;48.820;9.244;2022-11-03T14:13:55;13.20;99.90
7194;DHT22;3638;48.820;9.244;2022-11-03T14:16:22;13.20;99.90
7194;DHT22;3638;48.820;9.244;2022-11-03T14:18:49;13.20;99.90
7194;DHT22;3638;48.820;9.244;2022-11-03T14:21:16;13.20;99.90
7194;DHT22;3638;48.820;9.244;2022-11-03T14:23:43;13.10;99.90
7194;DHT22;3638;48.820;9.244;2022-11-03T14:26:09;13.00;99.90
7194;DHT22;3638;48.820;9.244;2022-11-03T14:28:36;13.10;99.90
7194;DHT22;3638;48.820;9.244;2022-11-03T14:31:05;13.10;99.90
7194;DHT22;3638;48.820;9.244;2022-11-03T14:35:59;13.00;99.90
7194;DHT22;3638;48.820;9.244;2022-11-03T14:38:26;13.00;99.90
7194;DHT22;3638;48.820;9.244;2022-11-03T14:40:53;13.00;99.90
7194;DHT22;3638;48.820;9.244;2022-11-03T14:43:37;12.90;99.90
7194;DHT22;3638;48.820;9.244;2022-11-03T14:46:06;13.00;99.90
7194;DHT22;3638;48.820;9.244;2022-11-03T14:48:32;12.90;99.90
7194;DHT22;3638;48.820;9.244;2022-11-03T14:50:59;12.80;99.90
7194;DHT22;3638;48.820;9.244;2022-11-03T14:53:26;12.80;99.90
7194;DHT22;3638;48.820;9.244;2022-11-03T14:55:53;12.70;99.90
7194;DHT22;3638;48.820;9.244;2022-11-03T14:58:20;12.70;99.90
7194;DHT22;3638;48.820;9.244;2022-11-03T15:00:47;12.60;99.90
7194;DHT22;3638;48.820;9.244;2022-11-03T15:03:15;12.70;99.90
7194;DHT22;3638;48.820;9.244;2022-11-03T15:05:42;12.60;99.90
7194;DHT22;3638;48.820;9.244;2022-11-03T15:08:09;12.80;99.90
7194;DHT22;3638;48.820;9.244;2022-11-03T15:10:36;12.80;99.90
7194;DHT22;3638;48.820;9.244;2022-11-03T15:13:03;12.70;99.90
7194;DHT22;3638;48.820;9.244;2022-11-03T15:15:30;12.70;99.90
7194;DHT22;3638;48.820;9.244;2022-11-03T15:17:57;12.70;99.90
7194;DHT22;3638;48.820;9.244;2022-11-03T15:20:25;12.70;99.90
7194;DHT22;3638;48.820;9.244;2022-11-03T15:22:52;12.60;99.90
7194;DHT22;3638;48.820;9.244;2022-11-03T15:25:19;12.60;99.90
7194;DHT22;3638;48.820;9.244;2022-11-03T15:27:45;12.60;99.90
7194;DHT22;3638;48.820;9.244;2022-11-03T15:30:12;12.60;99.90
7194;DHT22;3638;48.820;9.244;2022-11-03T15:32:40;12.60;99.90
7194;DHT22;3638;48.820;9.244;2022-11-03T15:35:08;12.50;99.90
7194;DHT22;3638;48.820;9.244;2022-11-03T15:37:36;12.50;99.90
7194;DHT22;3638;48.820;9.244;2022-11-03T15:40:04;12.50;99.90
7194;DHT22;3638;48.820;9.244;2022-11-03T15:42:32;12.50;99.90
7194;DHT22;3638;48.820;9.244;2022-11-03T15:44:59;12.50;99.90
7194;DHT22;3638;48.820;9.244;2022-11-03T15:47:25;12.40;99.90
7194;DHT22;3638;48.820;9.244;2022-11-03T15:49:52;12.40;99.90
7194;DHT22;3638;48.820;9.244;2022-11-03T15:52:19;12.40;99.90
7194;DHT22;3638;48.820;9.244;2022-11-03T15:54:48;12.40;99.90
7194;DHT22;3638;48.820;9.244;2022-11-03T15:57:15;12.40;99.90
7194;DHT22;3638;48.820;9.244;2022-11-03T15:59:42;12.30;99.90
7194;DHT22;3638;48.820;9.244;2022-11-03T16:02:09;12.30;99.90
7194;DHT22;3638;48.820;9.244;2022-11-03T16:04:36;12.40;99.90
7194;DHT22;3638;48.820;9.244;2022-11-03T16:07:04;12.40;99.90
7194;DHT22;3638;48.820;9.244;2022-11-03T16:09:31;12.30;99.90
7194;DHT22;3638;48.820;9.244;2022-11-03T16:11:59;12.30;99.90
7194;DHT22;3638;48.820;9.244;2022-11-03T16:14:26;12.30;99.90
7194;DHT22;3638;48.820;9.244;2022-11-03T16:16:53;12.30;99.90
7194;DHT22;3638;48.820;9.244;2022-11-03T16:19:21;12.20;99.90
7194;DHT22;3638;48.820;9.244;2022-11-03T16:21:47;12.20;99.90
7194;DHT22;3638;48.820;9.244;2022-11-03T16:24:15;12.30;99.90
7194;DHT22;3638;48.820;9.244;2022-11-03T16:26:42;12.20;99.90
7194;DHT22;3638;48.820;9.244;2022-11-03T16:29:10;12.20;99.90
7194;DHT22;3638;48.820;9.244;2022-11-03T16:31:37;12.20;99.90
7194;DHT22;3638;48.820;9.244;2022-11-03T16:34:04;12.10;99.90
7194;DHT22;3638;48.820;9.244;2022-11-03T16:36:30;12.20;99.90
7194;DHT22;3638;48.820;9.244;2022-11-03T16:38:57;12.20;99.90
7194;DHT22;3638;48.820;9.244;2022-11-03T16:41:24;12.30;99.90
7194;DHT22;3638;48.820;9.244;2022-11-03T16:43:51;12.30;99.90
7194;DHT22;3638;48.820;9.244;2022-11-03T16:46:19;12.50;99.90